sensor_id;sensor_type;location;lat;lon;timestamp;P1;durP1;ratioP1;P2;durP2;ratioP2
35530;SDS011;21637;53.352;-6.356;2023-03-23T00:02:02;9.65;;;1.90;;
35530;SDS011;21637;53.352;-6.356;2023-03-23T00:04:28;13.20;;;2.05;;
35530;SDS011;21637;53.352;-6.356;2023-03-23T00:06:56;8.75;;;2.15;;
35530;SDS011;21637;53.352;-6.356;2023-03-23T00:09:22;11.45;;;2.20;;
35530;SDS011;21637;53.352;-6.356;2023-03-23T00:11:48;12.15;;;2.10;;
35530;SDS011;21637;53.352;-6.356;2023-03-23T00:14:15;12.82;;;2.05;;
35530;SDS011;21637;53.352;-6.356;2023-03-23T00:16:47;6.35;;;1.77;;
35530;SDS011;21637;53.352;-6.356;2023-03-23T00:19:14;7.57;;;1.90;;
35530;SDS011;21637;53.352;-6.356;2023-03-23T00:21:40;12.00;;;1.98;;
35530;SDS011;21637;53.352;-6.356;2023-03-23T00:26:36;15.57;;;2.80;;
35530;SDS011;21637;53.352;-6.356;2023-03-23T00:29:05;10.75;;;1.98;;
35530;SDS011;21637;53.352;-6.356;2023-03-23T00:31:33;12.23;;;2.10;;
35530;SDS011;21637;53.352;-6.356;2023-03-23T00:34:00;10.18;;;2.42;;
35530;SDS011;21637;53.352;-6.356;2023-03-23T00:36:29;10.68;;;2.40;;
35530;SDS011;21637;53.352;-6.356;2023-03-23T00:38:56;12.00;;;2.42;;
35530;SDS011;21637;53.352;-6.356;2023-03-23T00:41:24;12.30;;;2.67;;
35530;SDS011;21637;53.352;-6.356;2023-03-23T00:43:52;9.60;;;2.08;;
35530;SDS011;21637;53.352;-6.356;2023-03-23T00:46:19;21.60;;;2.70;;
35530;SDS011;21637;53.352;-6.356;2023-03-23T00:48:45;12.15;;;2.58;;
35530;SDS011;21637;53.352;-6.356;2023-03-23T00:51:12;16.50;;;2.88;;
35530;SDS011;21637;53.352;-6.356;2023-03-23T00:53:38;14.88;;;2.35;;
35530;SDS011;21637;53.352;-6.356;2023-03-23T00:56:05;12.65;;;2.80;;
35530;SDS011;21637;53.352;-6.356;2023-03-23T00:58:32;11.88;;;2.72;;
35530;SDS011;21637;53.352;-6.356;2023-03-23T01:00:58;16.88;;;3.38;;
35530;SDS011;21637;53.352;-6.356;2023-03-23T01:03:24;13.52;;;2.28;;
35530;SDS011;21637;53.352;-6.356;2023-03-23T01:05:51;13.10;;;2.55;;
35530;SDS011;21637;53.352;-6.356;2023-03-23T01:08:18;14.02;;;3.00;;
35530;SDS011;21637;53.352;-6.356;2023-03-23T01:10:47;16.65;;;3.17;;
35530;SDS011;21637;53.352;-6.356;2023-03-23T01:13:14;18.42;;;3.30;;
35530;SDS011;21637;53.352;-6.356;2023-03-23T01:15:40;18.35;;;3.20;;
35530;SDS011;21637;53.352;-6.356;2023-03-23T01:18:07;16.83;;;3.00;;
35530;SDS011;21637;53.352;-6.356;2023-03-23T01:20:34;10.95;;;2.50;;
35530;SDS011;21637;53.352;-6.356;2023-03-23T01:23:01;11.77;;;2.97;;
35530;SDS011;21637;53.352;-6.356;2023-03-23T01:25:28;18.88;;;3.60;;
35530;SDS011;21637;53.352;-6.356;2023-03-23T01:27:56;19.58;;;3.85;;
35530;SDS011;21637;53.352;-6.356;2023-03-23T01:30:22;15.27;;;3.17;;
35530;SDS011;21637;53.352;-6.356;2023-03-23T01:32:49;16.95;;;3.08;;
35530;SDS011;21637;53.352;-6.356;2023-03-23T01:35:15;12.95;;;3.50;;
35530;SDS011;21637;53.352;-6.356;2023-03-23T01:37:41;12.60;;;2.90;;
35530;SDS011;21637;53.352;-6.356;2023-03-23T01:40:07;10.98;;;2.28;;
35530;SDS011;21637;53.352;-6.356;2023-03-23T01:42:35;12.98;;;2.05;;
35530;SDS011;21637;53.352;-6.356;2023-03-23T01:47:51;6.50;;;1.65;;
35530;SDS011;21637;53.352;-6.356;2023-03-23T01:50:21;10.02;;;1.48;;
35530;SDS011;21637;53.352;-6.356;2023-03-23T01:52:53;4.80;;;0.95;;
35530;SDS011;21637;53.352;-6.356;2023-03-23T01:55:21;5.82;;;1.30;;
35530;SDS011;21637;53.352;-6.356;2023-03-23T01:57:49;6.30;;;1.23;;
35530;SDS011;21637;53.352;-6.356;2023-03-23T02:00:15;7.22;;;1.65;;
35530;SDS011;21637;53.352;-6.356;2023-03-23T02:02:43;7.95;;;1.30;;
35530;SDS011;21637;53.352;-6.356;2023-03-23T02:05:13;7.18;;;1.50;;
35530;SDS011;21637;53.352;-6.356;2023-03-23T02:07:44;7.50;;;1.42;;
35530;SDS011;21637;53.352;-6.356;2023-03-23T02:10:12;7.38;;;1.42;;
35530;SDS011;21637;53.352;-6.356;2023-03-23T02:12:38;7.10;;;1.77;;
35530;SDS011;21637;53.352;-6.356;2023-03-23T02:15:04;8.13;;;1.70;;
35530;SDS011;21637;53.352;-6.356;2023-03-23T02:17:32;8.48;;;2.38;;
35530;SDS011;21637;53.352;-6.356;2023-03-23T02:33:29;12.90;;;2.80;;
35530;SDS011;21637;53.352;-6.356;2023-03-23T02:41:30;14.30;;;2.67;;
35530;SDS011;21637;53.352;-6.356;2023-03-23T02:44:01;15.35;;;3.55;;
35530;SDS011;21637;53.352;-6.356;2023-03-23T02:46:28;14.48;;;2.97;;
35530;SDS011;21637;53.352;-6.356;2023-03-23T02:48:56;15.93;;;3.42;;
35530;SDS011;21637;53.352;-6.356;2023-03-23T02:51:24;15.10;;;2.70;;
35530;SDS011;21637;53.352;-6.356;2023-03-23T02:53:51;15.63;;;3.17;;
35530;SDS011;21637;53.352;-6.356;2023-03-23T02:56:20;13.48;;;2.63;;
35530;SDS011;21637;53.352;-6.356;2023-03-23T02:58:48;12.63;;;2.83;;
35530;SDS011;21637;53.352;-6.356;2023-03-23T03:03:57;13.73;;;3.38;;
35530;SDS011;21637;53.352;-6.356;2023-03-23T03:06:32;11.13;;;2.88;;
35530;SDS011;21637;53.352;-6.356;2023-03-23T03:09:13;20.38;;;3.92;;
35530;SDS011;21637;53.352;-6.356;2023-03-23T03:12:02;20.70;;;3.53;;
35530;SDS011;21637;53.352;-6.356;2023-03-23T03:14:37;16.13;;;2.95;;
35530;SDS011;21637;53.352;-6.356;2023-03-23T03:19:49;17.45;;;2.53;;
35530;SDS011;21637;53.352;-6.356;2023-03-23T03:22:33;16.45;;;2.80;;
35530;SDS011;21637;53.352;-6.356;2023-03-23T03:25:02;13.38;;;2.55;;
35530;SDS011;21637;53.352;-6.356;2023-03-23T03:27:29;15.35;;;2.13;;
35530;SDS011;21637;53.352;-6.356;2023-03-23T03:29:57;11.90;;;2.80;;
35530;SDS011;21637;53.352;-6.356;2023-03-23T03:32:28;9.60;;;2.10;;
35530;SDS011;21637;53.352;-6.356;2023-03-23T03:35:01;15.13;;;2.15;;
35530;SDS011;21637;53.352;-6.356;2023-03-23T03:37:32;9.32;;;2.00;;
35530;SDS011;21637;53.352;-6.356;2023-03-23T03:40:02;7.50;;;1.80;;
35530;SDS011;21637;53.352;-6.356;2023-03-23T03:42:37;9.80;;;1.67;;
35530;SDS011;21637;53.352;-6.356;2023-03-23T03:45:04;8.02;;;1.60;;
35530;SDS011;21637;53.352;-6.356;2023-03-23T03:47:32;8.65;;;1.40;;
35530;SDS011;21637;53.352;-6.356;2023-03-23T03:49:58;9.70;;;1.95;;
35530;SDS011;21637;53.352;-6.356;2023-03-23T03:52:24;7.80;;;1.90;;
35530;SDS011;21637;53.352;-6.356;2023-03-23T03:54:50;7.80;;;1.70;;
35530;SDS011;21637;53.352;-6.356;2023-03-23T03:57:16;12.70;;;1.60;;
35530;SDS011;21637;53.352;-6.356;2023-03-23T03:59:42;10.43;;;2.10;;
35530;SDS011;21637;53.352;-6.356;2023-03-23T04:02:09;9.07;;;2.13;;
35530;SDS011;21637;53.352;-6.356;2023-03-23T04:04:38;8.60;;;1.35;;
35530;SDS011;21637;53.352;-6.356;2023-03-23T04:07:05;7.28;;;1.70;;
35530;SDS011;21637;53.352;-6.356;2023-03-23T04:09:30;7.18;;;1.30;;
35530;SDS011;21637;53.352;-6.356;2023-03-23T04:11:56;9.45;;;2.10;;
35530;SDS011;21637;53.352;-6.356;2023-03-23T04:14:22;7.88;;;1.95;;
35530;SDS011;21637;53.352;-6.356;2023-03-23T04:16:47;9.23;;;1.75;;
35530;SDS011;21637;53.352;-6.356;2023-03-23T04:19:21;8.18;;;1.20;;
35530;SDS011;21637;53.352;-6.356;2023-03-23T04:21:50;6.75;;;1.42;;
35530;SDS011;21637;53.352;-6.356;2023-03-23T04:24:16;7.78;;;2.03;;
35530;SDS011;21637;53.352;-6.356;2023-03-23T04:26:46;7.88;;;1.70;;
35530;SDS011;21637;53.352;-6.356;2023-03-23T04:29:12;5.88;;;1.48;;
35530;SDS011;21637;53.352;-6.356;2023-03-23T04:31:38;5.53;;;1.35;;
35530;SDS011;21637;53.352;-6.356;2023-03-23T04:34:04;8.05;;;1.30;;
35530;SDS011;21637;53.352;-6.356;2023-03-23T04:36:30;11.07;;;1.83;;
35530;SDS011;21637;53.352;-6.356;2023-03-23T04:38:59;8.82;;;1.98;;
35530;SDS011;21637;53.352;-6.356;2023-03-23T04:41:25;10.35;;;1.77;;
35530;SDS011;21637;53.352;-6.356;2023-03-23T04:43:51;10.43;;;2.28;;
35530;SDS011;21637;53.352;-6.356;2023-03-23T04:46:18;8.75;;;1.75;;
35530;SDS011;21637;53.352;-6.356;2023-03-23T04:48:46;8.85;;;2.10;;
35530;SDS011;21637;53.352;-6.356;2023-03-23T04:51:12;10.60;;;2.03;;
35530;SDS011;21637;53.352;-6.356;2023-03-23T04:53:38;9.98;;;2.10;;
35530;SDS011;21637;53.352;-6.356;2023-03-23T04:56:04;10.90;;;2.13;;
35530;SDS011;21637;53.352;-6.356;2023-03-23T04:58:30;12.00;;;2.17;;
35530;SDS011;21637;53.352;-6.356;2023-03-23T05:00:59;5.43;;;1.52;;
35530;SDS011;21637;53.352;-6.356;2023-03-23T05:03:25;12.60;;;2.05;;
35530;SDS011;21637;53.352;-6.356;2023-03-23T05:05:52;7.57;;;1.73;;
35530;SDS011;21637;53.352;-6.356;2023-03-23T05:08:21;9.70;;;1.70;;
35530;SDS011;21637;53.352;-6.356;2023-03-23T05:10:52;10.63;;;1.98;;
35530;SDS011;21637;53.352;-6.356;2023-03-23T05:13:20;7.70;;;1.58;;
35530;SDS011;21637;53.352;-6.356;2023-03-23T05:15:46;10.63;;;2.30;;
35530;SDS011;21637;53.352;-6.356;2023-03-23T05:18:12;8.30;;;1.58;;
35530;SDS011;21637;53.352;-6.356;2023-03-23T05:20:38;9.57;;;1.75;;
35530;SDS011;21637;53.352;-6.356;2023-03-23T05:23:04;10.95;;;1.80;;
35530;SDS011;21637;53.352;-6.356;2023-03-23T05:25:30;8.10;;;1.70;;
35530;SDS011;21637;53.352;-6.356;2023-03-23T05:28:01;6.57;;;1.40;;
35530;SDS011;21637;53.352;-6.356;2023-03-23T05:30:27;4.85;;;1.48;;
35530;SDS011;21637;53.352;-6.356;2023-03-23T05:32:54;7.40;;;1.63;;
35530;SDS011;21637;53.352;-6.356;2023-03-23T05:35:20;6.32;;;1.20;;
35530;SDS011;21637;53.352;-6.356;2023-03-23T05:37:46;7.20;;;1.48;;
35530;SDS011;21637;53.352;-6.356;2023-03-23T05:40:12;7.70;;;1.52;;
35530;SDS011;21637;53.352;-6.356;2023-03-23T05:42:38;7.40;;;1.42;;
35530;SDS011;21637;53.352;-6.356;2023-03-23T05:45:06;7.97;;;1.40;;
35530;SDS011;21637;53.352;-6.356;2023-03-23T05:47:34;9.00;;;1.20;;
35530;SDS011;21637;53.352;-6.356;2023-03-23T05:50:00;10.13;;;1.67;;
35530;SDS011;21637;53.352;-6.356;2023-03-23T05:52:27;10.23;;;1.40;;
35530;SDS011;21637;53.352;-6.356;2023-03-23T05:54:53;8.18;;;1.75;;
35530;SDS011;21637;53.352;-6.356;2023-03-23T05:57:19;7.82;;;1.40;;
35530;SDS011;21637;53.352;-6.356;2023-03-23T05:59:46;9.82;;;1.67;;
35530;SDS011;21637;53.352;-6.356;2023-03-23T06:02:12;8.65;;;1.70;;
35530;SDS011;21637;53.352;-6.356;2023-03-23T06:04:39;4.97;;;1.60;;
35530;SDS011;21637;53.352;-6.356;2023-03-23T06:07:06;12.40;;;2.95;;
35530;SDS011;21637;53.352;-6.356;2023-03-23T06:09:33;5.10;;;1.60;;
35530;SDS011;21637;53.352;-6.356;2023-03-23T06:11:59;5.15;;;1.50;;
35530;SDS011;21637;53.352;-6.356;2023-03-23T06:14:24;7.88;;;1.33;;
35530;SDS011;21637;53.352;-6.356;2023-03-23T06:16:51;5.45;;;1.42;;
35530;SDS011;21637;53.352;-6.356;2023-03-23T06:19:16;5.45;;;1.23;;
35530;SDS011;21637;53.352;-6.356;2023-03-23T06:21:42;15.00;;;1.75;;
35530;SDS011;21637;53.352;-6.356;2023-03-23T06:24:08;9.98;;;2.45;;
35530;SDS011;21637;53.352;-6.356;2023-03-23T06:26:35;11.43;;;2.65;;
35530;SDS011;21637;53.352;-6.356;2023-03-23T06:29:05;10.05;;;1.58;;
35530;SDS011;21637;53.352;-6.356;2023-03-23T06:31:36;9.00;;;2.25;;
35530;SDS011;21637;53.352;-6.356;2023-03-23T06:34:11;10.73;;;1.60;;
35530;SDS011;21637;53.352;-6.356;2023-03-23T06:36:37;8.00;;;1.92;;
35530;SDS011;21637;53.352;-6.356;2023-03-23T06:39:03;15.40;;;2.42;;
35530;SDS011;21637;53.352;-6.356;2023-03-23T06:41:30;12.27;;;2.88;;
35530;SDS011;21637;53.352;-6.356;2023-03-23T06:43:56;14.55;;;2.30;;
35530;SDS011;21637;53.352;-6.356;2023-03-23T06:46:22;13.00;;;1.80;;
35530;SDS011;21637;53.352;-6.356;2023-03-23T06:48:48;8.38;;;1.70;;
35530;SDS011;21637;53.352;-6.356;2023-03-23T06:51:17;10.40;;;2.20;;
35530;SDS011;21637;53.352;-6.356;2023-03-23T06:53:43;10.88;;;2.00;;
35530;SDS011;21637;53.352;-6.356;2023-03-23T06:56:09;10.35;;;2.03;;
35530;SDS011;21637;53.352;-6.356;2023-03-23T06:58:36;11.20;;;1.60;;
35530;SDS011;21637;53.352;-6.356;2023-03-23T07:01:02;11.13;;;2.00;;
35530;SDS011;21637;53.352;-6.356;2023-03-23T07:03:29;11.88;;;1.90;;
35530;SDS011;21637;53.352;-6.356;2023-03-23T07:05:56;7.78;;;2.33;;
35530;SDS011;21637;53.352;-6.356;2023-03-23T07:08:22;15.85;;;2.75;;
35530;SDS011;21637;53.352;-6.356;2023-03-23T07:10:50;9.18;;;2.10;;
35530;SDS011;21637;53.352;-6.356;2023-03-23T07:13:17;8.85;;;2.17;;
35530;SDS011;21637;53.352;-6.356;2023-03-23T07:15:43;15.27;;;2.55;;
35530;SDS011;21637;53.352;-6.356;2023-03-23T07:18:09;11.25;;;3.25;;
35530;SDS011;21637;53.352;-6.356;2023-03-23T07:20:35;11.77;;;3.03;;
35530;SDS011;21637;53.352;-6.356;2023-03-23T07:23:01;11.43;;;2.67;;
35530;SDS011;21637;53.352;-6.356;2023-03-23T07:25:30;14.90;;;3.22;;
35530;SDS011;21637;53.352;-6.356;2023-03-23T07:27:57;13.55;;;2.60;;
35530;SDS011;21637;53.352;-6.356;2023-03-23T07:30:27;11.20;;;2.72;;
35530;SDS011;21637;53.352;-6.356;2023-03-23T07:32:57;10.20;;;2.38;;
35530;SDS011;21637;53.352;-6.356;2023-03-23T07:35:23;14.50;;;3.00;;
35530;SDS011;21637;53.352;-6.356;2023-03-23T07:37:50;15.82;;;2.63;;
35530;SDS011;21637;53.352;-6.356;2023-03-23T07:40:18;10.50;;;2.50;;
35530;SDS011;21637;53.352;-6.356;2023-03-23T07:42:50;13.70;;;2.60;;
35530;SDS011;21637;53.352;-6.356;2023-03-23T07:45:21;12.38;;;2.47;;
35530;SDS011;21637;53.352;-6.356;2023-03-23T07:47:47;18.83;;;2.78;;
35530;SDS011;21637;53.352;-6.356;2023-03-23T07:50:13;11.63;;;2.30;;
35530;SDS011;21637;53.352;-6.356;2023-03-23T07:52:39;16.40;;;2.80;;
35530;SDS011;21637;53.352;-6.356;2023-03-23T07:55:06;13.30;;;3.13;;
35530;SDS011;21637;53.352;-6.356;2023-03-23T07:57:34;10.90;;;2.92;;
35530;SDS011;21637;53.352;-6.356;2023-03-23T08:00:00;12.85;;;2.53;;
35530;SDS011;21637;53.352;-6.356;2023-03-23T08:02:28;13.45;;;2.58;;
35530;SDS011;21637;53.352;-6.356;2023-03-23T08:04:56;19.90;;;3.53;;
35530;SDS011;21637;53.352;-6.356;2023-03-23T08:07:25;12.40;;;2.70;;
35530;SDS011;21637;53.352;-6.356;2023-03-23T08:09:51;14.80;;;2.85;;
35530;SDS011;21637;53.352;-6.356;2023-03-23T08:12:17;17.17;;;2.40;;
35530;SDS011;21637;53.352;-6.356;2023-03-23T08:14:43;13.00;;;3.13;;
35530;SDS011;21637;53.352;-6.356;2023-03-23T08:17:08;10.35;;;2.67;;
35530;SDS011;21637;53.352;-6.356;2023-03-23T08:19:35;19.00;;;2.92;;
35530;SDS011;21637;53.352;-6.356;2023-03-23T08:22:04;22.55;;;3.78;;
35530;SDS011;21637;53.352;-6.356;2023-03-23T08:24:31;14.88;;;3.20;;
35530;SDS011;21637;53.352;-6.356;2023-03-23T08:26:57;15.77;;;2.80;;
35530;SDS011;21637;53.352;-6.356;2023-03-23T08:29:24;17.83;;;2.55;;
35530;SDS011;21637;53.352;-6.356;2023-03-23T08:31:50;14.00;;;2.00;;
35530;SDS011;21637;53.352;-6.356;2023-03-23T08:34:16;12.75;;;2.03;;
35530;SDS011;21637;53.352;-6.356;2023-03-23T08:36:42;17.48;;;2.65;;
35530;SDS011;21637;53.352;-6.356;2023-03-23T08:39:09;9.32;;;2.85;;
35530;SDS011;21637;53.352;-6.356;2023-03-23T08:41:35;6.82;;;1.58;;
35530;SDS011;21637;53.352;-6.356;2023-03-23T08:44:01;17.65;;;2.60;;
35530;SDS011;21637;53.352;-6.356;2023-03-23T08:46:28;12.23;;;2.70;;
35530;SDS011;21637;53.352;-6.356;2023-03-23T08:48:53;7.10;;;1.63;;
35530;SDS011;21637;53.352;-6.356;2023-03-23T08:51:19;12.63;;;2.25;;
35530;SDS011;21637;53.352;-6.356;2023-03-23T08:53:45;18.02;;;3.00;;
35530;SDS011;21637;53.352;-6.356;2023-03-23T08:56:11;21.00;;;3.17;;
35530;SDS011;21637;53.352;-6.356;2023-03-23T08:58:38;15.45;;;3.22;;
35530;SDS011;21637;53.352;-6.356;2023-03-23T09:01:05;12.70;;;2.35;;
35530;SDS011;21637;53.352;-6.356;2023-03-23T09:03:32;13.35;;;2.17;;
35530;SDS011;21637;53.352;-6.356;2023-03-23T09:06:00;10.35;;;2.45;;
35530;SDS011;21637;53.352;-6.356;2023-03-23T09:08:27;10.68;;;2.95;;
35530;SDS011;21637;53.352;-6.356;2023-03-23T09:11:00;9.68;;;2.58;;
35530;SDS011;21637;53.352;-6.356;2023-03-23T09:13:30;9.23;;;1.90;;
35530;SDS011;21637;53.352;-6.356;2023-03-23T09:15:56;12.07;;;2.63;;
35530;SDS011;21637;53.352;-6.356;2023-03-23T09:18:22;11.02;;;2.13;;
35530;SDS011;21637;53.352;-6.356;2023-03-23T09:20:52;13.05;;;2.60;;
35530;SDS011;21637;53.352;-6.356;2023-03-23T09:23:19;22.05;;;3.88;;
35530;SDS011;21637;53.352;-6.356;2023-03-23T09:25:45;8.38;;;2.13;;
35530;SDS011;21637;53.352;-6.356;2023-03-23T09:28:12;26.83;;;3.30;;
35530;SDS011;21637;53.352;-6.356;2023-03-23T09:30:38;7.63;;;2.17;;
35530;SDS011;21637;53.352;-6.356;2023-03-23T09:33:05;13.15;;;2.78;;
35530;SDS011;21637;53.352;-6.356;2023-03-23T09:35:33;10.40;;;2.20;;
35530;SDS011;21637;53.352;-6.356;2023-03-23T09:38:00;14.13;;;2.30;;
35530;SDS011;21637;53.352;-6.356;2023-03-23T09:40:29;13.40;;;2.58;;
35530;SDS011;21637;53.352;-6.356;2023-03-23T09:50:46;13.43;;;2.88;;
35530;SDS011;21637;53.352;-6.356;2023-03-23T09:53:37;11.10;;;2.38;;
35530;SDS011;21637;53.352;-6.356;2023-03-23T09:56:13;8.60;;;1.88;;
35530;SDS011;21637;53.352;-6.356;2023-03-23T09:58:45;15.18;;;2.40;;
35530;SDS011;21637;53.352;-6.356;2023-03-23T10:01:26;7.53;;;2.13;;
35530;SDS011;21637;53.352;-6.356;2023-03-23T10:06:42;10.00;;;2.80;;
35530;SDS011;21637;53.352;-6.356;2023-03-23T10:09:13;17.45;;;3.08;;
35530;SDS011;21637;53.352;-6.356;2023-03-23T10:17:24;9.38;;;2.15;;
35530;SDS011;21637;53.352;-6.356;2023-03-23T10:22:55;11.43;;;2.53;;
35530;SDS011;21637;53.352;-6.356;2023-03-23T10:25:43;13.32;;;3.42;;
35530;SDS011;21637;53.352;-6.356;2023-03-23T10:28:24;14.40;;;2.88;;
35530;SDS011;21637;53.352;-6.356;2023-03-23T10:31:01;20.13;;;3.60;;
35530;SDS011;21637;53.352;-6.356;2023-03-23T10:33:41;11.65;;;2.60;;
35530;SDS011;21637;53.352;-6.356;2023-03-23T10:36:28;10.63;;;2.20;;
35530;SDS011;21637;53.352;-6.356;2023-03-23T10:39:02;17.67;;;3.28;;
35530;SDS011;21637;53.352;-6.356;2023-03-23T10:41:37;8.85;;;1.90;;
35530;SDS011;21637;53.352;-6.356;2023-03-23T10:44:10;12.35;;;2.33;;
35530;SDS011;21637;53.352;-6.356;2023-03-23T10:49:34;13.50;;;2.53;;
35530;SDS011;21637;53.352;-6.356;2023-03-23T10:57:44;14.32;;;2.33;;
35530;SDS011;21637;53.352;-6.356;2023-03-23T11:03:22;10.98;;;1.85;;
35530;SDS011;21637;53.352;-6.356;2023-03-23T11:05:42;12.45;;;2.35;;
35530;SDS011;21637;53.352;-6.356;2023-03-23T11:08:13;12.55;;;2.22;;
35530;SDS011;21637;53.352;-6.356;2023-03-23T11:13:17;7.25;;;1.58;;
35530;SDS011;21637;53.352;-6.356;2023-03-23T11:15:45;12.50;;;1.90;;
35530;SDS011;21637;53.352;-6.356;2023-03-23T11:18:13;9.88;;;2.15;;
35530;SDS011;21637;53.352;-6.356;2023-03-23T11:20:48;10.73;;;1.83;;
35530;SDS011;21637;53.352;-6.356;2023-03-23T11:23:31;12.48;;;1.60;;
35530;SDS011;21637;53.352;-6.356;2023-03-23T11:31:44;9.23;;;1.88;;
35530;SDS011;21637;53.352;-6.356;2023-03-23T11:34:19;14.02;;;2.67;;
35530;SDS011;21637;53.352;-6.356;2023-03-23T11:37:10;18.98;;;3.55;;
35530;SDS011;21637;53.352;-6.356;2023-03-23T11:42:24;16.83;;;3.03;;
35530;SDS011;21637;53.352;-6.356;2023-03-23T11:51:06;7.90;;;1.48;;
35530;SDS011;21637;53.352;-6.356;2023-03-23T11:53:42;16.50;;;2.28;;
35530;SDS011;21637;53.352;-6.356;2023-03-23T11:56:28;6.22;;;1.85;;
35530;SDS011;21637;53.352;-6.356;2023-03-23T11:58:58;11.70;;;1.77;;
35530;SDS011;21637;53.352;-6.356;2023-03-23T12:01:35;27.75;;;3.97;;
35530;SDS011;21637;53.352;-6.356;2023-03-23T12:15:24;13.40;;;2.65;;
35530;SDS011;21637;53.352;-6.356;2023-03-23T12:20:52;19.08;;;2.85;;
35530;SDS011;21637;53.352;-6.356;2023-03-23T12:26:25;8.93;;;1.77;;
35530;SDS011;21637;53.352;-6.356;2023-03-23T12:34:45;10.98;;;1.95;;
35530;SDS011;21637;53.352;-6.356;2023-03-23T12:40:10;11.52;;;2.33;;
35530;SDS011;21637;53.352;-6.356;2023-03-23T12:43:04;17.52;;;2.38;;
35530;SDS011;21637;53.352;-6.356;2023-03-23T12:48:18;12.50;;;2.25;;
35530;SDS011;21637;53.352;-6.356;2023-03-23T12:51:55;9.07;;;2.03;;
35530;SDS011;21637;53.352;-6.356;2023-03-23T12:54:12;13.80;;;3.00;;
35530;SDS011;21637;53.352;-6.356;2023-03-23T12:56:52;14.77;;;2.45;;
35530;SDS011;21637;53.352;-6.356;2023-03-23T13:04:44;15.00;;;3.03;;
35530;SDS011;21637;53.352;-6.356;2023-03-23T13:07:16;14.63;;;2.60;;
35530;SDS011;21637;53.352;-6.356;2023-03-23T13:10:03;11.00;;;2.22;;
35530;SDS011;21637;53.352;-6.356;2023-03-23T13:12:37;13.48;;;2.65;;
35530;SDS011;21637;53.352;-6.356;2023-03-23T13:21:06;13.70;;;2.33;;
35530;SDS011;21637;53.352;-6.356;2023-03-23T13:23:59;7.70;;;1.90;;
35530;SDS011;21637;53.352;-6.356;2023-03-23T13:26:39;12.10;;;1.90;;
35530;SDS011;21637;53.352;-6.356;2023-03-23T13:29:17;6.13;;;1.77;;
35530;SDS011;21637;53.352;-6.356;2023-03-23T13:31:45;13.45;;;2.13;;
35530;SDS011;21637;53.352;-6.356;2023-03-23T13:37:10;16.40;;;2.13;;
35530;SDS011;21637;53.352;-6.356;2023-03-23T13:42:28;11.50;;;1.80;;
35530;SDS011;21637;53.352;-6.356;2023-03-23T13:47:49;17.52;;;3.25;;
35530;SDS011;21637;53.352;-6.356;2023-03-23T13:50:27;12.32;;;2.13;;
35530;SDS011;21637;53.352;-6.356;2023-03-23T13:52:58;9.35;;;2.03;;
35530;SDS011;21637;53.352;-6.356;2023-03-23T14:03:12;14.05;;;2.65;;
35530;SDS011;21637;53.352;-6.356;2023-03-23T14:05:41;13.18;;;2.42;;
35530;SDS011;21637;53.352;-6.356;2023-03-23T14:13:10;11.47;;;2.17;;
35530;SDS011;21637;53.352;-6.356;2023-03-23T14:15:43;14.20;;;2.13;;
35530;SDS011;21637;53.352;-6.356;2023-03-23T14:18:19;11.50;;;1.67;;
35530;SDS011;21637;53.352;-6.356;2023-03-23T14:20:48;10.82;;;1.75;;
35530;SDS011;21637;53.352;-6.356;2023-03-23T14:23:18;7.78;;;1.90;;
35530;SDS011;21637;53.352;-6.356;2023-03-23T14:25:44;15.20;;;2.25;;
35530;SDS011;21637;53.352;-6.356;2023-03-23T14:28:19;12.43;;;1.95;;
35530;SDS011;21637;53.352;-6.356;2023-03-23T14:30:47;8.60;;;2.10;;
35530;SDS011;21637;53.352;-6.356;2023-03-23T14:33:17;10.60;;;2.47;;
35530;SDS011;21637;53.352;-6.356;2023-03-23T14:35:45;9.93;;;2.55;;
35530;SDS011;21637;53.352;-6.356;2023-03-23T14:38:19;8.75;;;1.85;;
35530;SDS011;21637;53.352;-6.356;2023-03-23T14:40:48;14.75;;;2.58;;
35530;SDS011;21637;53.352;-6.356;2023-03-23T14:43:15;15.27;;;2.80;;
35530;SDS011;21637;53.352;-6.356;2023-03-23T14:45:46;10.57;;;2.28;;
35530;SDS011;21637;53.352;-6.356;2023-03-23T14:50:55;10.73;;;2.60;;
35530;SDS011;21637;53.352;-6.356;2023-03-23T14:56:09;26.50;;;3.58;;
35530;SDS011;21637;53.352;-6.356;2023-03-23T14:58:37;19.35;;;3.30;;
35530;SDS011;21637;53.352;-6.356;2023-03-23T15:03:38;19.63;;;2.80;;
35530;SDS011;21637;53.352;-6.356;2023-03-23T15:06:10;16.17;;;3.38;;
35530;SDS011;21637;53.352;-6.356;2023-03-23T15:08:40;13.50;;;3.60;;
35530;SDS011;21637;53.352;-6.356;2023-03-23T15:13:45;17.00;;;3.13;;
35530;SDS011;21637;53.352;-6.356;2023-03-23T15:16:17;23.35;;;3.63;;
35530;SDS011;21637;53.352;-6.356;2023-03-23T15:18:51;12.93;;;3.40;;
35530;SDS011;21637;53.352;-6.356;2023-03-23T15:21:30;14.15;;;3.15;;
35530;SDS011;21637;53.352;-6.356;2023-03-23T15:24:01;13.20;;;3.05;;
35530;SDS011;21637;53.352;-6.356;2023-03-23T15:26:43;16.42;;;3.20;;
35530;SDS011;21637;53.352;-6.356;2023-03-23T15:29:11;13.65;;;3.33;;
35530;SDS011;21637;53.352;-6.356;2023-03-23T15:31:38;16.00;;;2.83;;
35530;SDS011;21637;53.352;-6.356;2023-03-23T15:34:10;13.40;;;2.72;;
35530;SDS011;21637;53.352;-6.356;2023-03-23T15:36:45;11.98;;;2.92;;
35530;SDS011;21637;53.352;-6.356;2023-03-23T15:39:15;10.60;;;2.08;;
35530;SDS011;21637;53.352;-6.356;2023-03-23T15:41:49;7.10;;;1.50;;
35530;SDS011;21637;53.352;-6.356;2023-03-23T15:44:20;8.95;;;1.80;;
35530;SDS011;21637;53.352;-6.356;2023-03-23T15:46:53;6.03;;;1.70;;
35530;SDS011;21637;53.352;-6.356;2023-03-23T15:49:28;7.50;;;1.80;;
35530;SDS011;21637;53.352;-6.356;2023-03-23T15:51:54;6.93;;;1.95;;
35530;SDS011;21637;53.352;-6.356;2023-03-23T15:54:19;6.72;;;1.60;;
35530;SDS011;21637;53.352;-6.356;2023-03-23T15:56:45;6.07;;;2.03;;
35530;SDS011;21637;53.352;-6.356;2023-03-23T15:59:11;11.27;;;2.50;;
35530;SDS011;21637;53.352;-6.356;2023-03-23T16:01:38;14.23;;;2.65;;
35530;SDS011;21637;53.352;-6.356;2023-03-23T16:04:07;9.68;;;2.13;;
35530;SDS011;21637;53.352;-6.356;2023-03-23T16:06:42;9.40;;;2.17;;
35530;SDS011;21637;53.352;-6.356;2023-03-23T16:09:11;7.93;;;1.77;;
35530;SDS011;21637;53.352;-6.356;2023-03-23T16:11:39;8.70;;;2.50;;
35530;SDS011;21637;53.352;-6.356;2023-03-23T16:14:06;8.00;;;2.35;;
35530;SDS011;21637;53.352;-6.356;2023-03-23T16:16:39;7.97;;;2.28;;
35530;SDS011;21637;53.352;-6.356;2023-03-23T16:19:10;11.20;;;2.67;;
35530;SDS011;21637;53.352;-6.356;2023-03-23T16:21:37;10.25;;;3.10;;
35530;SDS011;21637;53.352;-6.356;2023-03-23T16:24:04;12.52;;;2.50;;
35530;SDS011;21637;53.352;-6.356;2023-03-23T16:26:30;12.30;;;3.00;;
35530;SDS011;21637;53.352;-6.356;2023-03-23T16:28:55;13.45;;;3.08;;
35530;SDS011;21637;53.352;-6.356;2023-03-23T16:31:21;12.05;;;2.40;;
35530;SDS011;21637;53.352;-6.356;2023-03-23T16:33:47;11.98;;;2.65;;
35530;SDS011;21637;53.352;-6.356;2023-03-23T16:36:13;13.73;;;3.03;;
35530;SDS011;21637;53.352;-6.356;2023-03-23T16:38:39;14.13;;;2.97;;
35530;SDS011;21637;53.352;-6.356;2023-03-23T16:41:05;18.10;;;3.58;;
35530;SDS011;21637;53.352;-6.356;2023-03-23T16:43:32;16.85;;;3.08;;
35530;SDS011;21637;53.352;-6.356;2023-03-23T16:45:58;10.75;;;2.50;;
35530;SDS011;21637;53.352;-6.356;2023-03-23T16:48:24;15.93;;;3.33;;
35530;SDS011;21637;53.352;-6.356;2023-03-23T16:50:50;13.07;;;2.97;;
35530;SDS011;21637;53.352;-6.356;2023-03-23T16:53:18;13.45;;;2.58;;
35530;SDS011;21637;53.352;-6.356;2023-03-23T16:55:46;15.40;;;3.08;;
35530;SDS011;21637;53.352;-6.356;2023-03-23T16:58:15;11.70;;;3.28;;
35530;SDS011;21637;53.352;-6.356;2023-03-23T17:00:41;15.20;;;3.20;;
35530;SDS011;21637;53.352;-6.356;2023-03-23T17:03:08;15.35;;;3.20;;
35530;SDS011;21637;53.352;-6.356;2023-03-23T17:05:35;17.02;;;3.05;;
35530;SDS011;21637;53.352;-6.356;2023-03-23T17:08:01;8.55;;;2.67;;